sensor_id;sensor_type;location;lat;lon;timestamp;P1;durP1;ratioP1;P2;durP2;ratioP2
70663;SDS011;58237;57.996;56.290;2022-09-16T00:00:42;6.32;;;2.60;;
70663;SDS011;58237;57.996;56.290;2022-09-16T00:03:07;6.57;;;2.40;;
70663;SDS011;58237;57.996;56.290;2022-09-16T00:05:33;7.65;;;2.42;;
70663;SDS011;58237;57.996;56.290;2022-09-16T00:07:58;4.95;;;2.10;;
70663;SDS011;58237;57.996;56.290;2022-09-16T00:10:23;5.15;;;2.10;;
70663;SDS011;58237;57.996;56.290;2022-09-16T00:12:49;6.15;;;2.10;;
70663;SDS011;58237;57.996;56.290;2022-09-16T00:15:14;5.85;;;2.20;;
70663;SDS011;58237;57.996;56.290;2022-09-16T00:17:40;5.50;;;2.10;;
70663;SDS011;58237;57.996;56.290;2022-09-16T00:20:06;5.32;;;2.20;;
70663;SDS011;58237;57.996;56.290;2022-09-16T00:22:31;4.50;;;2.28;;
70663;SDS011;58237;57.996;56.290;2022-09-16T00:24:57;6.65;;;2.45;;
70663;SDS011;58237;57.996;56.290;2022-09-16T00:27:22;7.85;;;2.80;;
70663;SDS011;58237;57.996;56.290;2022-09-16T00:29:48;7.35;;;2.42;;
70663;SDS011;58237;57.996;56.290;2022-09-16T00:32:13;5.03;;;2.30;;
70663;SDS011;58237;57.996;56.290;2022-09-16T00:34:38;6.28;;;2.38;;
70663;SDS011;58237;57.996;56.290;2022-09-16T00:37:04;6.72;;;2.10;;
70663;SDS011;58237;57.996;56.290;2022-09-16T00:39:29;6.10;;;2.42;;
70663;SDS011;58237;57.996;56.290;2022-09-16T00:41:55;5.72;;;2.10;;
70663;SDS011;58237;57.996;56.290;2022-09-16T00:47:04;6.85;;;2.63;;
70663;SDS011;58237;57.996;56.290;2022-09-16T00:49:30;6.88;;;2.30;;
70663;SDS011;58237;57.996;56.290;2022-09-16T00:51:56;5.97;;;2.10;;
70663;SDS011;58237;57.996;56.290;2022-09-16T00:54:23;6.85;;;2.15;;
70663;SDS011;58237;57.996;56.290;2022-09-16T00:56:50;7.03;;;2.30;;
70663;SDS011;58237;57.996;56.290;2022-09-16T00:59:18;4.25;;;2.00;;
70663;SDS011;58237;57.996;56.290;2022-09-16T01:01:46;4.15;;;1.88;;
70663;SDS011;58237;57.996;56.290;2022-09-16T01:04:13;5.13;;;2.25;;
70663;SDS011;58237;57.996;56.290;2022-09-16T01:06:41;6.95;;;2.00;;
70663;SDS011;58237;57.996;56.290;2022-09-16T01:09:07;5.55;;;2.22;;
70663;SDS011;58237;57.996;56.290;2022-09-16T01:11:32;5.03;;;2.10;;
70663;SDS011;58237;57.996;56.290;2022-09-16T01:13:57;7.10;;;2.42;;
70663;SDS011;58237;57.996;56.290;2022-09-16T01:16:33;6.40;;;2.20;;
70663;SDS011;58237;57.996;56.290;2022-09-16T01:19:08;5.82;;;2.33;;
70663;SDS011;58237;57.996;56.290;2022-09-16T01:21:44;5.88;;;2.28;;
70663;SDS011;58237;57.996;56.290;2022-09-16T01:24:32;6.10;;;2.00;;
70663;SDS011;58237;57.996;56.290;2022-09-16T01:35:21;6.72;;;2.40;;
70663;SDS011;58237;57.996;56.290;2022-09-16T01:40:12;6.95;;;2.45;;
70663;SDS011;58237;57.996;56.290;2022-09-16T01:42:38;5.13;;;1.88;;
70663;SDS011;58237;57.996;56.290;2022-09-16T01:47:35;8.60;;;2.20;;
70663;SDS011;58237;57.996;56.290;2022-09-16T01:50:07;7.30;;;2.30;;
70663;SDS011;58237;57.996;56.290;2022-09-16T01:52:48;7.20;;;2.22;;
70663;SDS011;58237;57.996;56.290;2022-09-16T01:55:35;4.72;;;1.70;;
70663;SDS011;58237;57.996;56.290;2022-09-16T02:00:31;4.53;;;1.90;;
70663;SDS011;58237;57.996;56.290;2022-09-16T02:02:59;5.28;;;2.17;;
70663;SDS011;58237;57.996;56.290;2022-09-16T02:08:29;6.97;;;2.13;;
70663;SDS011;58237;57.996;56.290;2022-09-16T02:10:56;5.00;;;2.08;;
70663;SDS011;58237;57.996;56.290;2022-09-16T02:13:24;6.32;;;2.08;;
70663;SDS011;58237;57.996;56.290;2022-09-16T02:15:51;5.00;;;2.30;;
70663;SDS011;58237;57.996;56.290;2022-09-16T02:18:20;7.22;;;2.10;;
70663;SDS011;58237;57.996;56.290;2022-09-16T02:20:46;6.13;;;2.63;;
70663;SDS011;58237;57.996;56.290;2022-09-16T02:23:14;9.00;;;2.50;;
70663;SDS011;58237;57.996;56.290;2022-09-16T02:25:39;5.07;;;2.20;;
70663;SDS011;58237;57.996;56.290;2022-09-16T02:28:07;5.63;;;2.10;;
70663;SDS011;58237;57.996;56.290;2022-09-16T02:30:34;7.43;;;2.33;;
70663;SDS011;58237;57.996;56.290;2022-09-16T02:33:01;5.82;;;1.85;;
70663;SDS011;58237;57.996;56.290;2022-09-16T02:35:28;6.97;;;2.60;;
70663;SDS011;58237;57.996;56.290;2022-09-16T02:37:56;5.60;;;2.05;;
70663;SDS011;58237;57.996;56.290;2022-09-16T02:40:25;5.15;;;2.30;;
70663;SDS011;58237;57.996;56.290;2022-09-16T02:42:51;7.95;;;2.30;;
70663;SDS011;58237;57.996;56.290;2022-09-16T02:45:16;5.28;;;2.30;;
70663;SDS011;58237;57.996;56.290;2022-09-16T02:50:20;6.43;;;2.00;;
70663;SDS011;58237;57.996;56.290;2022-09-16T02:52:53;5.03;;;2.13;;
70663;SDS011;58237;57.996;56.290;2022-09-16T02:56:22;7.78;;;2.63;;
70663;SDS011;58237;57.996;56.290;2022-09-16T02:58:15;7.20;;;2.33;;
70663;SDS011;58237;57.996;56.290;2022-09-16T03:00:42;6.40;;;2.22;;
70663;SDS011;58237;57.996;56.290;2022-09-16T03:03:09;7.18;;;2.42;;
70663;SDS011;58237;57.996;56.290;2022-09-16T03:05:35;6.35;;;2.05;;
70663;SDS011;58237;57.996;56.290;2022-09-16T03:08:00;8.40;;;2.67;;
70663;SDS011;58237;57.996;56.290;2022-09-16T03:10:26;7.28;;;2.33;;
70663;SDS011;58237;57.996;56.290;2022-09-16T03:18:21;6.50;;;1.80;;
70663;SDS011;58237;57.996;56.290;2022-09-16T03:21:26;4.78;;;1.88;;
70663;SDS011;58237;57.996;56.290;2022-09-16T03:26:28;5.65;;;2.10;;
70663;SDS011;58237;57.996;56.290;2022-09-16T03:31:29;6.82;;;2.80;;
70663;SDS011;58237;57.996;56.290;2022-09-16T03:34:05;7.22;;;2.22;;
70663;SDS011;58237;57.996;56.290;2022-09-16T03:36:38;4.75;;;1.92;;
70663;SDS011;58237;57.996;56.290;2022-09-16T03:39:06;4.32;;;2.00;;
70663;SDS011;58237;57.996;56.290;2022-09-16T03:41:33;5.57;;;2.00;;
70663;SDS011;58237;57.996;56.290;2022-09-16T03:43:59;5.80;;;2.10;;
70663;SDS011;58237;57.996;56.290;2022-09-16T03:46:25;6.75;;;2.20;;
70663;SDS011;58237;57.996;56.290;2022-09-16T03:48:51;5.05;;;1.98;;
70663;SDS011;58237;57.996;56.290;2022-09-16T03:51:16;5.15;;;2.22;;
70663;SDS011;58237;57.996;56.290;2022-09-16T03:53:42;4.60;;;2.08;;
70663;SDS011;58237;57.996;56.290;2022-09-16T03:56:07;6.15;;;2.53;;
70663;SDS011;58237;57.996;56.290;2022-09-16T03:58:33;7.95;;;2.50;;
70663;SDS011;58237;57.996;56.290;2022-09-16T04:00:58;6.38;;;2.30;;
70663;SDS011;58237;57.996;56.290;2022-09-16T04:03:24;7.28;;;2.40;;
70663;SDS011;58237;57.996;56.290;2022-09-16T04:05:53;7.15;;;2.42;;
70663;SDS011;58237;57.996;56.290;2022-09-16T04:08:18;8.98;;;2.33;;
70663;SDS011;58237;57.996;56.290;2022-09-16T04:10:56;6.65;;;2.70;;
70663;SDS011;58237;57.996;56.290;2022-09-16T04:13:22;5.90;;;2.13;;
70663;SDS011;58237;57.996;56.290;2022-09-16T04:15:47;8.68;;;3.03;;
70663;SDS011;58237;57.996;56.290;2022-09-16T04:18:13;7.20;;;3.00;;
70663;SDS011;58237;57.996;56.290;2022-09-16T04:20:38;10.38;;;3.78;;
70663;SDS011;58237;57.996;56.290;2022-09-16T04:23:03;8.77;;;2.88;;
70663;SDS011;58237;57.996;56.290;2022-09-16T04:25:29;7.28;;;2.75;;
70663;SDS011;58237;57.996;56.290;2022-09-16T04:27:54;7.05;;;2.90;;
70663;SDS011;58237;57.996;56.290;2022-09-16T04:30:19;8.05;;;2.92;;
70663;SDS011;58237;57.996;56.290;2022-09-16T04:32:45;6.43;;;2.30;;
70663;SDS011;58237;57.996;56.290;2022-09-16T04:35:10;6.10;;;2.00;;
70663;SDS011;58237;57.996;56.290;2022-09-16T04:37:35;5.95;;;2.28;;
70663;SDS011;58237;57.996;56.290;2022-09-16T04:40:01;6.28;;;2.70;;
70663;SDS011;58237;57.996;56.290;2022-09-16T04:42:28;5.75;;;2.03;;
70663;SDS011;58237;57.996;56.290;2022-09-16T04:44:53;6.22;;;2.13;;
70663;SDS011;58237;57.996;56.290;2022-09-16T04:47:18;6.30;;;3.00;;
70663;SDS011;58237;57.996;56.290;2022-09-16T04:49:43;5.65;;;2.40;;
70663;SDS011;58237;57.996;56.290;2022-09-16T04:52:09;7.07;;;3.20;;
70663;SDS011;58237;57.996;56.290;2022-09-16T04:54:34;10.88;;;3.20;;
70663;SDS011;58237;57.996;56.290;2022-09-16T04:56:59;7.30;;;2.80;;
70663;SDS011;58237;57.996;56.290;2022-09-16T04:59:25;6.07;;;2.45;;
70663;SDS011;58237;57.996;56.290;2022-09-16T05:01:50;5.20;;;2.08;;
70663;SDS011;58237;57.996;56.290;2022-09-16T05:04:15;7.97;;;2.50;;
70663;SDS011;58237;57.996;56.290;2022-09-16T05:06:41;6.03;;;2.40;;
70663;SDS011;58237;57.996;56.290;2022-09-16T05:09:07;6.70;;;2.40;;
70663;SDS011;58237;57.996;56.290;2022-09-16T05:11:35;6.53;;;2.38;;
70663;SDS011;58237;57.996;56.290;2022-09-16T05:14:01;5.75;;;2.40;;
70663;SDS011;58237;57.996;56.290;2022-09-16T05:16:26;6.75;;;2.75;;
70663;SDS011;58237;57.996;56.290;2022-09-16T05:18:53;6.03;;;2.38;;
70663;SDS011;58237;57.996;56.290;2022-09-16T05:21:19;7.18;;;2.75;;
70663;SDS011;58237;57.996;56.290;2022-09-16T05:23:45;7.28;;;2.83;;
70663;SDS011;58237;57.996;56.290;2022-09-16T05:26:12;5.20;;;2.50;;
70663;SDS011;58237;57.996;56.290;2022-09-16T05:28:38;8.07;;;2.63;;
70663;SDS011;58237;57.996;56.290;2022-09-16T05:31:22;8.50;;;2.60;;
70663;SDS011;58237;57.996;56.290;2022-09-16T05:33:58;6.65;;;2.80;;
70663;SDS011;58237;57.996;56.290;2022-09-16T05:36:24;7.22;;;2.55;;
70663;SDS011;58237;57.996;56.290;2022-09-16T05:38:50;5.78;;;2.50;;
70663;SDS011;58237;57.996;56.290;2022-09-16T05:41:15;5.50;;;2.45;;
70663;SDS011;58237;57.996;56.290;2022-09-16T05:43:41;5.28;;;2.28;;
70663;SDS011;58237;57.996;56.290;2022-09-16T05:46:06;6.63;;;2.22;;
70663;SDS011;58237;57.996;56.290;2022-09-16T05:48:32;8.60;;;2.80;;
70663;SDS011;58237;57.996;56.290;2022-09-16T05:50:59;6.00;;;2.17;;
70663;SDS011;58237;57.996;56.290;2022-09-16T05:53:25;6.97;;;2.20;;
70663;SDS011;58237;57.996;56.290;2022-09-16T05:58:19;6.68;;;2.60;;
70663;SDS011;58237;57.996;56.290;2022-09-16T06:00:45;5.70;;;2.50;;
70663;SDS011;58237;57.996;56.290;2022-09-16T06:03:10;5.45;;;2.30;;
70663;SDS011;58237;57.996;56.290;2022-09-16T06:05:35;5.07;;;2.13;;
70663;SDS011;58237;57.996;56.290;2022-09-16T06:08:00;7.05;;;2.75;;
70663;SDS011;58237;57.996;56.290;2022-09-16T06:10:26;5.50;;;2.40;;
70663;SDS011;58237;57.996;56.290;2022-09-16T06:12:51;5.97;;;2.67;;
70663;SDS011;58237;57.996;56.290;2022-09-16T06:15:16;5.53;;;2.28;;
70663;SDS011;58237;57.996;56.290;2022-09-16T06:17:42;8.27;;;2.50;;
70663;SDS011;58237;57.996;56.290;2022-09-16T06:20:07;6.10;;;2.10;;
70663;SDS011;58237;57.996;56.290;2022-09-16T06:22:33;6.75;;;2.35;;
70663;SDS011;58237;57.996;56.290;2022-09-16T06:24:58;6.38;;;2.40;;
70663;SDS011;58237;57.996;56.290;2022-09-16T06:27:23;8.50;;;2.80;;
70663;SDS011;58237;57.996;56.290;2022-09-16T06:29:48;6.93;;;2.95;;
70663;SDS011;58237;57.996;56.290;2022-09-16T06:32:14;5.63;;;2.75;;
70663;SDS011;58237;57.996;56.290;2022-09-16T06:34:39;5.35;;;2.50;;
70663;SDS011;58237;57.996;56.290;2022-09-16T06:37:04;5.70;;;2.40;;
70663;SDS011;58237;57.996;56.290;2022-09-16T06:39:30;7.78;;;2.83;;
70663;SDS011;58237;57.996;56.290;2022-09-16T06:41:55;8.20;;;2.88;;
70663;SDS011;58237;57.996;56.290;2022-09-16T06:44:20;6.05;;;2.40;;
70663;SDS011;58237;57.996;56.290;2022-09-16T06:46:46;7.75;;;2.45;;
70663;SDS011;58237;57.996;56.290;2022-09-16T06:49:11;8.55;;;2.47;;
70663;SDS011;58237;57.996;56.290;2022-09-16T06:51:36;7.60;;;2.88;;
70663;SDS011;58237;57.996;56.290;2022-09-16T06:54:03;5.70;;;2.67;;
70663;SDS011;58237;57.996;56.290;2022-09-16T06:56:29;5.32;;;2.67;;
70663;SDS011;58237;57.996;56.290;2022-09-16T06:58:54;7.03;;;2.47;;
70663;SDS011;58237;57.996;56.290;2022-09-16T07:01:20;6.90;;;2.90;;
70663;SDS011;58237;57.996;56.290;2022-09-16T07:03:47;8.30;;;3.00;;
70663;SDS011;58237;57.996;56.290;2022-09-16T07:06:13;6.43;;;2.45;;
70663;SDS011;58237;57.996;56.290;2022-09-16T07:08:39;6.07;;;2.70;;
70663;SDS011;58237;57.996;56.290;2022-09-16T07:11:06;8.18;;;2.30;;
70663;SDS011;58237;57.996;56.290;2022-09-16T07:13:32;6.63;;;2.65;;
70663;SDS011;58237;57.996;56.290;2022-09-16T07:15:58;8.70;;;3.00;;
70663;SDS011;58237;57.996;56.290;2022-09-16T07:18:23;6.95;;;2.60;;
70663;SDS011;58237;57.996;56.290;2022-09-16T07:20:49;7.47;;;2.85;;
70663;SDS011;58237;57.996;56.290;2022-09-16T07:23:14;9.02;;;2.55;;
70663;SDS011;58237;57.996;56.290;2022-09-16T07:25:39;6.25;;;2.88;;
70663;SDS011;58237;57.996;56.290;2022-09-16T07:28:05;6.40;;;2.92;;
70663;SDS011;58237;57.996;56.290;2022-09-16T07:30:30;5.47;;;2.50;;
70663;SDS011;58237;57.996;56.290;2022-09-16T07:32:56;8.18;;;2.60;;
70663;SDS011;58237;57.996;56.290;2022-09-16T07:35:21;7.20;;;2.60;;
70663;SDS011;58237;57.996;56.290;2022-09-16T07:37:46;5.68;;;2.75;;
70663;SDS011;58237;57.996;56.290;2022-09-16T07:40:12;7.47;;;3.33;;
70663;SDS011;58237;57.996;56.290;2022-09-16T07:42:37;7.55;;;3.25;;
70663;SDS011;58237;57.996;56.290;2022-09-16T07:45:03;7.00;;;2.95;;
70663;SDS011;58237;57.996;56.290;2022-09-16T07:47:28;6.38;;;3.15;;
70663;SDS011;58237;57.996;56.290;2022-09-16T07:49:54;7.80;;;3.30;;
70663;SDS011;58237;57.996;56.290;2022-09-16T07:52:19;7.18;;;2.80;;
70663;SDS011;58237;57.996;56.290;2022-09-16T07:54:44;5.70;;;2.40;;
70663;SDS011;58237;57.996;56.290;2022-09-16T07:57:10;6.97;;;3.20;;
70663;SDS011;58237;57.996;56.290;2022-09-16T07:59:35;8.05;;;3.13;;
70663;SDS011;58237;57.996;56.290;2022-09-16T08:02:00;6.75;;;3.10;;
70663;SDS011;58237;57.996;56.290;2022-09-16T08:04:26;6.95;;;3.25;;
70663;SDS011;58237;57.996;56.290;2022-09-16T08:06:51;7.80;;;2.80;;
70663;SDS011;58237;57.996;56.290;2022-09-16T08:09:16;6.43;;;2.78;;
70663;SDS011;58237;57.996;56.290;2022-09-16T08:11:41;6.47;;;2.65;;
70663;SDS011;58237;57.996;56.290;2022-09-16T08:14:07;6.43;;;2.42;;
70663;SDS011;58237;57.996;56.290;2022-09-16T08:16:32;9.35;;;2.83;;
70663;SDS011;58237;57.996;56.290;2022-09-16T08:18:58;7.53;;;2.78;;
70663;SDS011;58237;57.996;56.290;2022-09-16T08:21:25;6.85;;;2.83;;
70663;SDS011;58237;57.996;56.290;2022-09-16T08:23:51;6.03;;;1.90;;
70663;SDS011;58237;57.996;56.290;2022-09-16T08:26:17;6.50;;;2.60;;
70663;SDS011;58237;57.996;56.290;2022-09-16T08:28:43;5.32;;;1.90;;
70663;SDS011;58237;57.996;56.290;2022-09-16T08:31:09;5.32;;;2.50;;
70663;SDS011;58237;57.996;56.290;2022-09-16T08:33:34;6.93;;;2.38;;
70663;SDS011;58237;57.996;56.290;2022-09-16T08:36:06;5.72;;;2.35;;
70663;SDS011;58237;57.996;56.290;2022-09-16T08:38:32;6.88;;;2.65;;
70663;SDS011;58237;57.996;56.290;2022-09-16T08:41:00;6.40;;;2.60;;
70663;SDS011;58237;57.996;56.290;2022-09-16T08:50:43;9.25;;;3.00;;
70663;SDS011;58237;57.996;56.290;2022-09-16T08:53:16;11.02;;;2.78;;
70663;SDS011;58237;57.996;56.290;2022-09-16T08:55:47;7.30;;;2.42;;
70663;SDS011;58237;57.996;56.290;2022-09-16T08:58:15;13.98;;;2.90;;
70663;SDS011;58237;57.996;56.290;2022-09-16T09:00:42;10.73;;;3.30;;
70663;SDS011;58237;57.996;56.290;2022-09-16T09:05:52;6.70;;;2.40;;
70663;SDS011;58237;57.996;56.290;2022-09-16T09:08:24;6.25;;;2.28;;
70663;SDS011;58237;57.996;56.290;2022-09-16T09:10:57;6.18;;;2.28;;
70663;SDS011;58237;57.996;56.290;2022-09-16T09:13:30;6.97;;;2.20;;
70663;SDS011;58237;57.996;56.290;2022-09-16T09:23:38;5.88;;;2.38;;
70663;SDS011;58237;57.996;56.290;2022-09-16T09:26:20;5.30;;;2.22;;
70663;SDS011;58237;57.996;56.290;2022-09-16T09:39:38;7.63;;;3.22;;
70663;SDS011;58237;57.996;56.290;2022-09-16T09:41:48;8.52;;;3.47;;
70663;SDS011;58237;57.996;56.290;2022-09-16T09:47:18;7.35;;;2.70;;
70663;SDS011;58237;57.996;56.290;2022-09-16T09:49:47;6.47;;;2.63;;
70663;SDS011;58237;57.996;56.290;2022-09-16T09:52:35;6.57;;;2.50;;
70663;SDS011;58237;57.996;56.290;2022-09-16T09:55:00;6.43;;;2.72;;
70663;SDS011;58237;57.996;56.290;2022-09-16T09:57:31;5.45;;;2.40;;
70663;SDS011;58237;57.996;56.290;2022-09-16T10:00:31;5.90;;;2.17;;
70663;SDS011;58237;57.996;56.290;2022-09-16T10:02:49;4.78;;;2.10;;
70663;SDS011;58237;57.996;56.290;2022-09-16T10:05:22;5.93;;;2.08;;
70663;SDS011;58237;57.996;56.290;2022-09-16T10:07:48;5.70;;;2.20;;
70663;SDS011;58237;57.996;56.290;2022-09-16T10:10:15;7.88;;;2.58;;
70663;SDS011;58237;57.996;56.290;2022-09-16T10:12:40;5.53;;;2.28;;
70663;SDS011;58237;57.996;56.290;2022-09-16T10:15:16;7.88;;;2.47;;
70663;SDS011;58237;57.996;56.290;2022-09-16T10:17:46;8.40;;;2.63;;
70663;SDS011;58237;57.996;56.290;2022-09-16T10:20:26;13.32;;;3.22;;
70663;SDS011;58237;57.996;56.290;2022-09-16T10:23:03;9.48;;;3.20;;
70663;SDS011;58237;57.996;56.290;2022-09-16T10:25:29;10.27;;;2.97;;
70663;SDS011;58237;57.996;56.290;2022-09-16T10:27:56;8.70;;;2.97;;
70663;SDS011;58237;57.996;56.290;2022-09-16T10:30:21;8.52;;;2.63;;
70663;SDS011;58237;57.996;56.290;2022-09-16T10:35:15;6.70;;;2.60;;
70663;SDS011;58237;57.996;56.290;2022-09-16T10:37:45;7.45;;;2.80;;
70663;SDS011;58237;57.996;56.290;2022-09-16T10:40:13;8.40;;;2.35;;
70663;SDS011;58237;57.996;56.290;2022-09-16T10:42:44;7.72;;;2.60;;
70663;SDS011;58237;57.996;56.290;2022-09-16T10:45:14;7.43;;;2.58;;
70663;SDS011;58237;57.996;56.290;2022-09-16T10:47:40;6.47;;;2.90;;
70663;SDS011;58237;57.996;56.290;2022-09-16T10:50:15;5.88;;;2.60;;
70663;SDS011;58237;57.996;56.290;2022-09-16T10:52:42;4.97;;;2.35;;
70663;SDS011;58237;57.996;56.290;2022-09-16T10:55:11;7.72;;;2.30;;
70663;SDS011;58237;57.996;56.290;2022-09-16T10:57:41;6.88;;;2.40;;
70663;SDS011;58237;57.996;56.290;2022-09-16T11:02:43;8.57;;;2.38;;
70663;SDS011;58237;57.996;56.290;2022-09-16T11:10:20;6.60;;;1.98;;
70663;SDS011;58237;57.996;56.290;2022-09-16T11:18:15;7.43;;;2.38;;
70663;SDS011;58237;57.996;56.290;2022-09-16T11:20:53;6.05;;;2.60;;
70663;SDS011;58237;57.996;56.290;2022-09-16T11:25:51;7.88;;;2.90;;
70663;SDS011;58237;57.996;56.290;2022-09-16T11:30:54;9.45;;;3.00;;
70663;SDS011;58237;57.996;56.290;2022-09-16T11:33:36;7.32;;;2.78;;
70663;SDS011;58237;57.996;56.290;2022-09-16T11:41:32;7.97;;;2.70;;
70663;SDS011;58237;57.996;56.290;2022-09-16T11:44:09;5.35;;;2.60;;
70663;SDS011;58237;57.996;56.290;2022-09-16T11:46:48;11.27;;;2.58;;
70663;SDS011;58237;57.996;56.290;2022-09-16T11:57:34;5.65;;;2.60;;
70663;SDS011;58237;57.996;56.290;2022-09-16T12:00:08;5.25;;;2.60;;
70663;SDS011;58237;57.996;56.290;2022-09-16T12:02:36;8.18;;;2.90;;
70663;SDS011;58237;57.996;56.290;2022-09-16T12:07:36;6.25;;;2.10;;
70663;SDS011;58237;57.996;56.290;2022-09-16T12:10:11;5.80;;;2.47;;
70663;SDS011;58237;57.996;56.290;2022-09-16T12:12:39;6.15;;;2.20;;
70663;SDS011;58237;57.996;56.290;2022-09-16T12:15:29;5.65;;;2.15;;
70663;SDS011;58237;57.996;56.290;2022-09-16T12:17:57;6.72;;;2.38;;
70663;SDS011;58237;57.996;56.290;2022-09-16T12:20:28;5.82;;;2.22;;
70663;SDS011;58237;57.996;56.290;2022-09-16T12:23:38;6.07;;;2.42;;
70663;SDS011;58237;57.996;56.290;2022-09-16T12:26:06;8.10;;;2.55;;
70663;SDS011;58237;57.996;56.290;2022-09-16T12:31:02;6.20;;;2.17;;
70663;SDS011;58237;57.996;56.290;2022-09-16T12:33:32;7.80;;;2.30;;
70663;SDS011;58237;57.996;56.290;2022-09-16T12:38:27;7.60;;;3.70;;
70663;SDS011;58237;57.996;56.290;2022-09-16T12:51:02;7.95;;;2.30;;
70663;SDS011;58237;57.996;56.290;2022-09-16T12:59:04;7.88;;;2.50;;
70663;SDS011;58237;57.996;56.290;2022-09-16T13:03:56;6.03;;;2.00;;
70663;SDS011;58237;57.996;56.290;2022-09-16T13:06:24;6.72;;;2.42;;
70663;SDS011;58237;57.996;56.290;2022-09-16T13:08:51;4.85;;;2.00;;
70663;SDS011;58237;57.996;56.290;2022-09-16T13:11:18;5.68;;;2.13;;
70663;SDS011;58237;57.996;56.290;2022-09-16T13:13:48;7.57;;;2.60;;
70663;SDS011;58237;57.996;56.290;2022-09-16T13:16:14;6.78;;;2.03;;
70663;SDS011;58237;57.996;56.290;2022-09-16T13:18:50;7.00;;;2.50;;
70663;SDS011;58237;57.996;56.290;2022-09-16T13:21:26;8.57;;;2.28;;
70663;SDS011;58237;57.996;56.290;2022-09-16T13:24:17;8.07;;;2.33;;
70663;SDS011;58237;57.996;56.290;2022-09-16T13:26:41;6.65;;;2.30;;
70663;SDS011;58237;57.996;56.290;2022-09-16T13:29:23;8.25;;;2.70;;
70663;SDS011;58237;57.996;56.290;2022-09-16T13:31:49;7.18;;;1.95;;
70663;SDS011;58237;57.996;56.290;2022-09-16T13:34:16;6.32;;;2.30;;
70663;SDS011;58237;57.996;56.290;2022-09-16T13:36:41;8.75;;;4.90;;
70663;SDS011;58237;57.996;56.290;2022-09-16T13:39:11;7.05;;;3.67;;
70663;SDS011;58237;57.996;56.290;2022-09-16T13:41:41;6.25;;;2.75;;
70663;SDS011;58237;57.996;56.290;2022-09-16T13:46:50;6.75;;;2.78;;
70663;SDS011;58237;57.996;56.290;2022-09-16T13:49:17;6.53;;;2.35;;
70663;SDS011;58237;57.996;56.290;2022-09-16T13:51:44;6.20;;;3.08;;
70663;SDS011;58237;57.996;56.290;2022-09-16T13:54:25;7.82;;;3.65;;
70663;SDS011;58237;57.996;56.290;2022-09-16T13:56:54;7.43;;;3.20;;
70663;SDS011;58237;57.996;56.290;2022-09-16T13:59:37;6.60;;;2.67;;
70663;SDS011;58237;57.996;56.290;2022-09-16T14:02:15;7.38;;;3.10;;
70663;SDS011;58237;57.996;56.290;2022-09-16T14:04:59;8.88;;;2.92;;
70663;SDS011;58237;57.996;56.290;2022-09-16T14:10:08;8.70;;;3.35;;
70663;SDS011;58237;57.996;56.290;2022-09-16T14:15:13;11.25;;;4.00;;
70663;SDS011;58237;57.996;56.290;2022-09-16T14:17:43;9.23;;;3.53;;
70663;SDS011;58237;57.996;56.290;2022-09-16T14:20:14;10.02;;;4.20;;
70663;SDS011;58237;57.996;56.290;2022-09-16T14:22:39;13.43;;;4.18;;
70663;SDS011;58237;57.996;56.290;2022-09-16T14:25:22;9.80;;;4.03;;
70663;SDS011;58237;57.996;56.290;2022-09-16T14:27:48;10.88;;;4.00;;
70663;SDS011;58237;57.996;56.290;2022-09-16T14:30:14;8.85;;;3.35;;
70663;SDS011;58237;57.996;56.290;2022-09-16T14:32:40;10.30;;;3.70;;
70663;SDS011;58237;57.996;56.290;2022-09-16T14:35:16;9.15;;;3.42;;
70663;SDS011;58237;57.996;56.290;2022-09-16T14:37:43;9.70;;;3.65;;
70663;SDS011;58237;57.996;56.290;2022-09-16T14:40:10;6.18;;;2.60;;
70663;SDS011;58237;57.996;56.290;2022-09-16T14:42:46;12.63;;;3.25;;
70663;SDS011;58237;57.996;56.290;2022-09-16T14:45:15;8.50;;;3.70;;
70663;SDS011;58237;57.996;56.290;2022-09-16T14:47:41;8.43;;;3.40;;
70663;SDS011;58237;57.996;56.290;2022-09-16T14:50:10;11.73;;;3.65;;
70663;SDS011;58237;57.996;56.290;2022-09-16T14:52:35;9.75;;;3.20;;
70663;SDS011;58237;57.996;56.290;2022-09-16T14:55:01;11.57;;;3.42;;
70663;SDS011;58237;57.996;56.290;2022-09-16T14:57:27;7.25;;;3.28;;
70663;SDS011;58237;57.996;56.290;2022-09-16T14:59:54;10.95;;;4.13;;
70663;SDS011;58237;57.996;56.290;2022-09-16T15:07:33;9.07;;;3.08;;
70663;SDS011;58237;57.996;56.290;2022-09-16T15:12:32;13.65;;;3.67;;
70663;SDS011;58237;57.996;56.290;2022-09-16T15:15:01;10.50;;;2.90;;
70663;SDS011;58237;57.996;56.290;2022-09-16T15:17:28;8.00;;;2.78;;
70663;SDS011;58237;57.996;56.290;2022-09-16T15:19:55;10.50;;;3.40;;
70663;SDS011;58237;57.996;56.290;2022-09-16T15:22:21;8.48;;;3.15;;
70663;SDS011;58237;57.996;56.290;2022-09-16T15:24:50;13.35;;;4.10;;
70663;SDS011;58237;57.996;56.290;2022-09-16T15:27:19;10.25;;;3.42;;
70663;SDS011;58237;57.996;56.290;2022-09-16T15:29:46;12.63;;;4.00;;
70663;SDS011;58237;57.996;56.290;2022-09-16T15:32:19;9.68;;;3.88;;
70663;SDS011;58237;57.996;56.290;2022-09-16T15:34:44;6.90;;;2.97;;
70663;SDS011;58237;57.996;56.290;2022-09-16T15:37:29;11.80;;;4.22;;
70663;SDS011;58237;57.996;56.290;2022-09-16T15:39:54;11.00;;;4.10;;
70663;SDS011;58237;57.996;56.290;2022-09-16T15:42:20;10.50;;;3.78;;
70663;SDS011;58237;57.996;56.290;2022-09-16T15:47:28;11.52;;;4.00;;
70663;SDS011;58237;57.996;56.290;2022-09-16T15:52:19;10.65;;;4.25;;
70663;SDS011;58237;57.996;56.290;2022-09-16T15:54:47;14.52;;;4.10;;
70663;SDS011;58237;57.996;56.290;2022-09-16T15:59:55;11.07;;;4.40;;
70663;SDS011;58237;57.996;56.290;2022-09-16T16:02:29;11.07;;;4.22;;
70663;SDS011;58237;57.996;56.290;2022-09-16T16:05:05;10.05;;;4.00;;
70663;SDS011;58237;57.996;56.290;2022-09-16T16:12:37;7.72;;;3.30;;
70663;SDS011;58237;57.996;56.290;2022-09-16T16:15:02;9.52;;;3.13;;
70663;SDS011;58237;57.996;56.290;2022-09-16T16:17:28;12.27;;;4.28;;
70663;SDS011;58237;57.996;56.290;2022-09-16T16:19:55;11.38;;;3.42;;
70663;SDS011;58237;57.996;56.290;2022-09-16T16:22:21;9.32;;;3.38;;
70663;SDS011;58237;57.996;56.290;2022-09-16T16:24:46;7.97;;;2.90;;
70663;SDS011;58237;57.996;56.290;2022-09-16T16:27:11;6.03;;;2.60;;
70663;SDS011;58237;57.996;56.290;2022-09-16T16:29:37;7.05;;;2.33;;
70663;SDS011;58237;57.996;56.290;2022-09-16T16:32:09;7.35;;;2.40;;
70663;SDS011;58237;57.996;56.290;2022-09-16T16:34:38;11.07;;;3.40;;
70663;SDS011;58237;57.996;56.290;2022-09-16T16:37:04;7.30;;;2.38;;
70663;SDS011;58237;57.996;56.290;2022-09-16T16:39:30;10.45;;;3.30;;
70663;SDS011;58237;57.996;56.290;2022-09-16T16:41:55;10.48;;;2.97;;
70663;SDS011;58237;57.996;56.290;2022-09-16T16:44:24;8.65;;;3.03;;
70663;SDS011;58237;57.996;56.290;2022-09-16T16:46:50;12.43;;;3.75;;
70663;SDS011;58237;57.996;56.290;2022-09-16T16:49:15;8.18;;;3.10;;
70663;SDS011;58237;57.996;56.290;2022-09-16T16:51:41;6.72;;;2.78;;
70663;SDS011;58237;57.996;56.290;2022-09-16T16:54:06;8.95;;;2.95;;
70663;SDS011;58237;57.996;56.290;2022-09-16T16:56:31;8.45;;;2.72;;
70663;SDS011;58237;57.996;56.290;2022-09-16T16:58:57;7.97;;;3.40;;
70663;SDS011;58237;57.996;56.290;2022-09-16T17:01:22;12.43;;;3.10;;
70663;SDS011;58237;57.996;56.290;2022-09-16T17:03:47;7.47;;;2.92;;
70663;SDS011;58237;57.996;56.290;2022-09-16T17:06:13;7.78;;;3.05;;
70663;SDS011;58237;57.996;56.290;2022-09-16T17:08:38;5.00;;;2.30;;
70663;SDS011;58237;57.996;56.290;2022-09-16T17:11:04;8.48;;;2.90;;
70663;SDS011;58237;57.996;56.290;2022-09-16T17:13:30;10.50;;;3.80;;
70663;SDS011;58237;57.996;56.290;2022-09-16T17:15:55;6.75;;;3.08;;